createdAt,value
2017-09-27T00:01:12.197Z,10.80
2017-09-27T00:03:39.712Z,10.80
2017-09-27T00:06:07.241Z,10.80
2017-09-27T00:08:34.733Z,10.80
2017-09-27T00:11:02.361Z,10.90
2017-09-27T00:13:29.853Z,11.00
2017-09-27T00:15:57.365Z,11.00
2017-09-27T00:18:24.896Z,11.00
2017-09-27T00:20:52.396Z,11.00
2017-09-27T00:23:19.925Z,11.00
2017-09-27T00:25:47.416Z,10.90
2017-09-27T00:28:15.714Z,10.90
2017-09-27T00:30:43.213Z,10.80
2017-09-27T00:33:11.544Z,10.90
2017-09-27T00:35:39.618Z,10.80
2017-09-27T00:38:07.512Z,10.90
2017-09-27T00:40:35.012Z,10.90
2017-09-27T00:43:02.511Z,10.90
2017-09-27T00:45:30.059Z,10.90
2017-09-27T00:47:57.561Z,11.00
2017-09-27T00:50:25.854Z,10.80
2017-09-27T00:52:53.355Z,10.80
2017-09-27T00:55:20.883Z,10.80
2017-09-27T00:57:48.373Z,10.80
2017-09-27T01:00:15.868Z,10.70
2017-09-27T01:02:43.405Z,10.60
2017-09-27T01:05:10.905Z,10.50
2017-09-27T01:07:38.500Z,10.50
2017-09-27T01:10:06.005Z,10.50
2017-09-27T01:12:33.749Z,10.50
2017-09-27T01:15:01.885Z,10.60
2017-09-27T01:17:30.162Z,10.60
2017-09-27T01:19:57.688Z,10.60
2017-09-27T01:22:25.954Z,10.60
2017-09-27T01:24:54.262Z,10.60
2017-09-27T01:30:12.475Z,10.50
2017-09-27T01:32:39.973Z,10.40
2017-09-27T01:35:08.680Z,10.40
2017-09-27T01:37:36.198Z,10.40
2017-09-27T01:40:03.706Z,10.40
2017-09-27T01:42:31.232Z,10.50
2017-09-27T01:44:58.735Z,10.50
2017-09-27T01:47:26.583Z,10.50
2017-09-27T01:49:54.894Z,10.60
2017-09-27T01:52:22.558Z,10.60
2017-09-27T01:54:50.056Z,10.60
2017-09-27T01:57:17.568Z,10.60
2017-09-27T01:59:45.866Z,10.50
2017-09-27T02:02:13.366Z,10.50
2017-09-27T02:04:40.911Z,10.40
2017-09-27T02:07:09.188Z,10.40
2017-09-27T02:09:37.499Z,10.30
2017-09-27T02:12:05.005Z,10.30
2017-09-27T02:14:32.872Z,10.30
2017-09-27T02:17:00.370Z,10.20
2017-09-27T02:19:27.897Z,10.20
2017-09-27T02:21:55.454Z,10.10
2017-09-27T02:24:23.695Z,10.00
2017-09-27T02:26:51.230Z,10.00
2017-09-27T02:29:18.734Z,10.00
2017-09-27T02:31:46.265Z,10.00
2017-09-27T02:34:13.771Z,10.00
2017-09-27T02:36:41.298Z,9.90
2017-09-27T02:39:08.800Z,9.90
2017-09-27T02:41:37.393Z,10.00
2017-09-27T02:44:04.898Z,10.00
2017-09-27T02:46:32.389Z,10.00
2017-09-27T02:48:59.922Z,10.00
2017-09-27T02:51:27.433Z,10.00
2017-09-27T02:53:54.972Z,9.90
2017-09-27T02:56:22.474Z,9.80
2017-09-27T02:58:50.002Z,9.70
2017-09-27T03:01:17.492Z,9.60
2017-09-27T03:03:45.041Z,9.60
2017-09-27T03:06:12.530Z,9.60
2017-09-27T03:08:40.161Z,9.60
2017-09-27T03:11:07.667Z,9.60
2017-09-27T03:13:35.181Z,9.70
2017-09-27T03:16:02.705Z,9.70
2017-09-27T03:18:30.870Z,9.80
2017-09-27T03:20:58.410Z,9.80
2017-09-27T03:23:25.935Z,9.80
2017-09-27T03:25:53.467Z,9.70
2017-09-27T03:28:21.731Z,9.60
2017-09-27T03:30:50.443Z,9.60
2017-09-27T03:33:17.934Z,9.60
2017-09-27T03:35:45.438Z,9.60
2017-09-27T03:38:12.966Z,9.50
2017-09-27T03:40:40.466Z,9.50
2017-09-27T03:43:08.003Z,9.50
2017-09-27T03:45:35.522Z,9.60
2017-09-27T03:48:03.737Z,9.60
2017-09-27T03:50:32.166Z,9.60
2017-09-27T03:52:59.692Z,9.60
2017-09-27T03:55:27.190Z,9.70
2017-09-27T03:57:55.615Z,9.80
2017-09-27T04:00:23.118Z,9.80
2017-09-27T04:02:50.614Z,9.90
2017-09-27T04:05:18.925Z,9.90
2017-09-27T04:07:46.427Z,9.90
2017-09-27T04:10:13.968Z,10.00
2017-09-27T04:12:41.469Z,10.00
2017-09-27T04:15:08.993Z,9.90
2017-09-27T04:17:36.486Z,9.80
2017-09-27T04:20:04.031Z,9.60
2017-09-27T04:22:31.529Z,9.60
2017-09-27T04:24:59.081Z,9.50
2017-09-27T04:27:26.575Z,9.50
2017-09-27T04:29:54.213Z,9.40
2017-09-27T04:32:21.705Z,9.40
2017-09-27T04:34:49.206Z,9.40
2017-09-27T04:37:16.732Z,9.50
2017-09-27T04:39:44.226Z,9.50
2017-09-27T04:42:11.755Z,9.50
2017-09-27T04:44:40.020Z,9.40
2017-09-27T04:47:07.554Z,9.40
2017-09-27T04:49:35.847Z,9.30
2017-09-27T04:52:03.436Z,9.30
2017-09-27T04:54:30.937Z,9.30
2017-09-27T04:56:58.473Z,9.20
2017-09-27T04:59:25.970Z,9.20
2017-09-27T05:01:53.494Z,9.20
2017-09-27T05:04:21.747Z,9.20
2017-09-27T05:06:49.259Z,9.10
2017-09-27T05:09:16.794Z,9.10
2017-09-27T05:11:45.066Z,9.20
2017-09-27T05:14:12.589Z,9.20
2017-09-27T05:16:40.099Z,9.30
2017-09-27T05:19:07.800Z,9.20
2017-09-27T05:21:35.313Z,9.20
2017-09-27T05:24:02.814Z,9.20
2017-09-27T05:26:30.354Z,9.20
2017-09-27T05:28:57.850Z,9.10
2017-09-27T05:31:26.257Z,9.10
2017-09-27T05:33:53.766Z,9.10
2017-09-27T05:36:22.174Z,9.10
2017-09-27T05:38:49.706Z,9.20
2017-09-27T05:41:17.216Z,9.20
2017-09-27T05:43:46.619Z,9.30
2017-09-27T05:46:14.710Z,9.30
2017-09-27T05:48:49.184Z,9.30
2017-09-27T05:51:16.701Z,9.40
2017-09-27T05:53:44.241Z,9.40
2017-09-27T05:56:11.759Z,9.50
2017-09-27T05:58:39.364Z,9.60
2017-09-27T06:01:06.874Z,9.70
2017-09-27T06:03:34.410Z,9.90
2017-09-27T06:06:01.905Z,10.00
2017-09-27T06:08:29.405Z,10.20
2017-09-27T06:10:56.942Z,10.40
2017-09-27T06:13:24.443Z,10.70
2017-09-27T06:15:52.100Z,10.90
2017-09-27T06:18:19.606Z,11.20
2017-09-27T06:20:47.147Z,11.40
2017-09-27T06:23:15.420Z,11.70
2017-09-27T06:25:42.961Z,11.70
2017-09-27T06:28:10.473Z,11.80
2017-09-27T06:30:37.978Z,11.90
2017-09-27T06:33:05.514Z,11.90
2017-09-27T06:35:33.022Z,12.10
2017-09-27T06:38:01.330Z,12.30
2017-09-27T06:40:28.837Z,12.30
2017-09-27T06:42:56.415Z,12.40
2017-09-27T06:45:23.951Z,12.50
2017-09-27T06:47:51.461Z,12.60
2017-09-27T06:50:18.998Z,12.80
2017-09-27T06:52:47.262Z,13.10
2017-09-27T06:55:15.570Z,13.30
2017-09-27T06:57:43.081Z,13.30
2017-09-27T07:00:10.613Z,13.60
2017-09-27T07:02:38.906Z,16.30
2017-09-27T07:05:06.411Z,16.20
2017-09-27T07:07:34.718Z,18.00
2017-09-27T07:10:03.004Z,18.50
2017-09-27T07:12:30.929Z,18.50
2017-09-27T07:14:58.431Z,18.80
2017-09-27T07:17:25.941Z,19.20
2017-09-27T07:19:53.489Z,19.50
2017-09-27T07:22:20.983Z,19.90
2017-09-27T07:24:49.282Z,20.50
2017-09-27T07:27:16.786Z,20.40
2017-09-27T07:29:45.089Z,20.60
2017-09-27T07:32:12.594Z,20.50
2017-09-27T07:34:41.086Z,20.40
2017-09-27T07:37:08.594Z,20.40
2017-09-27T07:39:36.109Z,20.30
2017-09-27T07:42:03.654Z,20.20
2017-09-27T07:44:31.149Z,20.70
2017-09-27T07:46:58.681Z,21.30
2017-09-27T07:49:26.184Z,21.70
2017-09-27T07:51:53.721Z,21.60
2017-09-27T07:54:21.219Z,21.60
2017-09-27T07:56:48.721Z,21.60
2017-09-27T07:59:16.255Z,22.00
2017-09-27T08:01:43.798Z,22.10
2017-09-27T08:04:11.339Z,22.40
2017-09-27T08:06:38.846Z,23.50
2017-09-27T08:09:06.381Z,24.50
2017-09-27T08:11:33.883Z,25.30
2017-09-27T08:14:01.426Z,24.70
2017-09-27T08:16:29.778Z,24.90
2017-09-27T08:18:57.318Z,25.30
2017-09-27T08:21:24.820Z,25.50
2017-09-27T08:23:52.499Z,25.30
2017-09-27T08:26:20.012Z,24.90
2017-09-27T08:28:47.515Z,25.40
2017-09-27T08:31:15.058Z,25.30
2017-09-27T08:33:42.558Z,25.50
2017-09-27T08:36:10.093Z,25.60
2017-09-27T08:38:37.592Z,26.20
2017-09-27T08:41:05.280Z,26.40
2017-09-27T08:43:32.781Z,25.90
2017-09-27T08:46:00.285Z,25.90
2017-09-27T08:48:27.826Z,26.20
2017-09-27T08:50:55.369Z,27.20
2017-09-27T08:53:22.901Z,27.50
2017-09-27T08:55:50.413Z,27.60
2017-09-27T08:58:17.951Z,27.30
2017-09-27T09:00:45.453Z,26.70
2017-09-27T09:03:12.988Z,26.60
2017-09-27T09:05:40.498Z,26.10
2017-09-27T09:08:08.820Z,26.30
2017-09-27T09:10:36.322Z,26.30
2017-09-27T09:13:04.138Z,26.30
2017-09-27T09:15:31.638Z,26.40
2017-09-27T09:17:59.133Z,27.00
2017-09-27T09:20:26.678Z,28.00
2017-09-27T09:22:54.957Z,26.70
2017-09-27T09:25:23.258Z,26.40
2017-09-27T09:27:50.781Z,26.40
2017-09-27T09:30:18.447Z,26.90
2017-09-27T09:32:45.946Z,26.70
2017-09-27T09:35:13.650Z,27.40
2017-09-27T09:37:41.153Z,27.40
2017-09-27T09:40:08.661Z,27.60
2017-09-27T09:42:36.205Z,27.70
2017-09-27T09:45:03.708Z,28.00
2017-09-27T09:47:31.245Z,26.90
2017-09-27T09:49:58.749Z,27.00
2017-09-27T09:52:27.068Z,25.90
2017-09-27T09:54:54.568Z,25.90
2017-09-27T09:57:22.862Z,26.90
2017-09-27T09:59:50.365Z,26.90
2017-09-27T10:02:17.898Z,27.60
2017-09-27T10:04:45.428Z,27.80
2017-09-27T10:07:12.933Z,27.70
2017-09-27T10:09:40.473Z,27.90
2017-09-27T10:12:07.991Z,28.20
2017-09-27T10:14:36.689Z,28.40
2017-09-27T10:17:04.190Z,28.50
2017-09-27T10:19:32.493Z,28.20
2017-09-27T10:22:00.022Z,28.20
2017-09-27T10:24:27.553Z,28.40
2017-09-27T10:26:55.854Z,27.50
2017-09-27T10:29:23.354Z,27.50
2017-09-27T10:31:51.618Z,27.20
2017-09-27T10:34:19.917Z,27.30
2017-09-27T10:36:47.436Z,27.30
2017-09-27T10:39:14.994Z,27.70
2017-09-27T10:41:42.524Z,28.20
2017-09-27T10:44:10.069Z,28.10
2017-09-27T10:46:37.599Z,27.60
2017-09-27T10:49:05.192Z,27.80
2017-09-27T10:51:32.696Z,27.30
2017-09-27T10:54:01.405Z,26.20
2017-09-27T10:56:28.905Z,26.20
2017-09-27T10:58:57.188Z,24.40
2017-09-27T11:01:24.734Z,24.30
2017-09-27T11:03:52.238Z,23.50
2017-09-27T11:06:19.770Z,23.00
2017-09-27T11:08:47.274Z,22.70
2017-09-27T11:11:14.811Z,22.60
2017-09-27T11:13:42.310Z,22.50
2017-09-27T11:16:09.850Z,22.50
2017-09-27T11:18:37.361Z,22.40
2017-09-27T11:21:05.302Z,22.40
2017-09-27T11:23:32.808Z,22.40
2017-09-27T11:26:01.134Z,22.30
2017-09-27T11:28:28.671Z,22.20
2017-09-27T11:30:56.184Z,22.50
2017-09-27T11:33:23.742Z,22.40
2017-09-27T11:35:51.241Z,22.20
2017-09-27T11:38:18.777Z,22.10
2017-09-27T11:40:46.277Z,22.00
2017-09-27T11:43:14.103Z,22.10
2017-09-27T11:45:41.606Z,22.10
2017-09-27T11:48:09.142Z,22.10
2017-09-27T11:50:36.687Z,22.00
2017-09-27T11:53:04.186Z,21.90
2017-09-27T11:55:31.726Z,21.90
2017-09-27T11:57:59.233Z,22.10
2017-09-27T12:00:26.778Z,22.20
2017-09-27T12:02:54.283Z,22.40
2017-09-27T12:05:21.821Z,22.40
2017-09-27T12:07:49.317Z,22.30
2017-09-27T12:10:16.855Z,22.30
2017-09-27T12:12:44.460Z,22.50
2017-09-27T12:15:11.967Z,22.40
2017-09-27T12:17:39.498Z,22.30
2017-09-27T12:20:07.775Z,22.10
2017-09-27T12:22:35.318Z,22.00
2017-09-27T12:25:02.823Z,22.10
2017-09-27T12:27:30.518Z,22.20
2017-09-27T12:29:58.049Z,22.20
2017-09-27T12:32:26.331Z,22.40
2017-09-27T12:34:53.968Z,22.40
2017-09-27T12:37:21.465Z,22.40
2017-09-27T12:39:49.005Z,22.30
2017-09-27T12:42:16.506Z,22.20
2017-09-27T12:44:44.046Z,22.00
2017-09-27T12:47:11.546Z,22.20
2017-09-27T12:49:39.073Z,22.30
2017-09-27T12:52:06.578Z,22.50
2017-09-27T12:54:34.266Z,22.70
2017-09-27T12:57:01.785Z,22.80
2017-09-27T12:59:29.281Z,22.80
2017-09-27T13:01:56.826Z,22.50
2017-09-27T13:04:24.328Z,22.40
2017-09-27T13:06:51.859Z,22.30
2017-09-27T13:09:19.383Z,22.20
2017-09-27T13:11:46.919Z,22.20
2017-09-27T13:14:15.187Z,22.30
2017-09-27T13:16:43.063Z,22.20
2017-09-27T13:19:10.562Z,22.20
2017-09-27T13:21:38.068Z,22.10
2017-09-27T13:24:05.598Z,22.10
2017-09-27T13:26:33.096Z,22.10
2017-09-27T13:29:01.394Z,22.20
2017-09-27T13:31:28.898Z,22.10
2017-09-27T13:33:57.240Z,22.30
2017-09-27T13:36:24.737Z,22.20
2017-09-27T13:38:52.601Z,22.30
2017-09-27T13:41:20.101Z,22.30
2017-09-27T13:43:47.602Z,22.40
2017-09-27T13:46:15.133Z,22.30
2017-09-27T13:48:42.630Z,22.30
2017-09-27T13:51:10.172Z,22.20
2017-09-27T13:53:37.670Z,22.20
2017-09-27T13:56:05.205Z,22.20
2017-09-27T13:58:32.711Z,22.20
2017-09-27T14:01:01.170Z,22.20
2017-09-27T14:03:28.670Z,22.20
2017-09-27T14:05:56.175Z,22.20
2017-09-27T14:08:24.482Z,22.20
2017-09-27T14:10:51.986Z,22.20
2017-09-27T14:13:19.529Z,22.10
2017-09-27T14:15:47.474Z,22.10
2017-09-27T14:18:15.796Z,22.00
2017-09-27T14:20:43.304Z,22.00
2017-09-27T14:23:10.841Z,21.90
2017-09-27T14:25:38.341Z,21.90
2017-09-27T14:28:06.034Z,21.80
2017-09-27T14:30:33.541Z,21.90
2017-09-27T14:33:01.061Z,21.80
2017-09-27T14:35:28.877Z,21.80
2017-09-27T14:37:56.382Z,21.90
2017-09-27T14:40:23.913Z,21.80
2017-09-27T14:42:51.448Z,21.80
2017-09-27T14:45:18.991Z,21.80
2017-09-27T14:47:46.485Z,21.80
2017-09-27T14:50:14.013Z,21.80
2017-09-27T14:52:42.285Z,21.70
2017-09-27T14:55:10.032Z,21.70
2017-09-27T14:57:38.298Z,21.60
2017-09-27T15:00:06.558Z,21.60
2017-09-27T15:02:34.142Z,21.60
2017-09-27T15:05:02.592Z,21.70
2017-09-27T15:07:30.890Z,21.70
2017-09-27T15:09:58.415Z,21.70
2017-09-27T15:12:25.965Z,21.70
2017-09-27T15:14:53.466Z,21.60
2017-09-27T15:17:21.002Z,21.60
2017-09-27T15:19:49.262Z,21.70
2017-09-27T15:22:17.558Z,21.70
2017-09-27T15:24:45.073Z,21.70
2017-09-27T15:27:12.771Z,21.70
2017-09-27T15:29:40.265Z,21.60
2017-09-27T15:32:07.749Z,21.60
2017-09-27T15:34:35.289Z,21.50
2017-09-27T15:37:02.795Z,21.50
2017-09-27T15:39:31.093Z,21.40
2017-09-27T15:41:58.582Z,21.40
2017-09-27T15:44:26.108Z,21.40
2017-09-27T15:46:53.656Z,21.30
2017-09-27T15:49:21.178Z,21.30
2017-09-27T15:51:48.670Z,21.30
2017-09-27T15:54:17.112Z,21.30
2017-09-27T15:56:44.614Z,21.20
2017-09-27T15:59:12.101Z,21.10
2017-09-27T16:01:39.630Z,21.00
2017-09-27T16:04:07.122Z,21.00
2017-09-27T16:06:34.650Z,21.00
2017-09-27T16:09:02.918Z,20.80
2017-09-27T16:11:31.226Z,20.80
2017-09-27T16:13:58.729Z,20.80
2017-09-27T16:16:26.710Z,20.90
2017-09-27T16:18:54.262Z,20.70
2017-09-27T16:21:21.768Z,20.60
2017-09-27T16:23:49.320Z,20.50
2017-09-27T16:26:16.828Z,20.50
2017-09-27T16:28:44.363Z,20.50
2017-09-27T16:31:11.857Z,20.40
2017-09-27T16:33:39.395Z,20.30
2017-09-27T16:36:06.890Z,20.20
2017-09-27T16:38:34.801Z,20.00
2017-09-27T16:41:02.293Z,19.80
2017-09-27T16:43:29.793Z,19.70
2017-09-27T16:45:57.325Z,19.50
2017-09-27T16:48:24.842Z,19.40
2017-09-27T16:50:53.147Z,19.00
2017-09-27T16:53:20.661Z,19.00
2017-09-27T16:55:48.266Z,18.80
2017-09-27T16:58:15.782Z,18.70
2017-09-27T17:00:44.818Z,18.50
2017-09-27T17:03:13.155Z,18.30
2017-09-27T17:05:41.447Z,18.20
2017-09-27T17:08:09.757Z,18.00
2017-09-27T17:10:37.248Z,18.00
2017-09-27T17:13:05.556Z,17.60
2017-09-27T17:15:33.053Z,17.60
2017-09-27T17:18:01.351Z,17.30
2017-09-27T17:20:29.553Z,17.30
2017-09-27T17:22:57.087Z,17.20
2017-09-27T17:25:24.626Z,17.00
2017-09-27T17:27:52.558Z,16.90
2017-09-27T17:30:20.833Z,17.00
2017-09-27T17:32:48.391Z,16.90
2017-09-27T17:35:15.925Z,17.00
2017-09-27T17:37:43.440Z,17.00
2017-09-27T17:40:10.968Z,16.90
2017-09-27T17:42:38.466Z,16.80
2017-09-27T17:45:06.005Z,16.70
2017-09-27T17:47:33.497Z,16.60
2017-09-27T17:50:01.037Z,16.50
2017-09-27T17:52:28.538Z,16.20
2017-09-27T17:54:56.287Z,16.10
2017-09-27T17:57:24.608Z,16.30
2017-09-27T17:59:52.098Z,16.20
2017-09-27T18:02:19.621Z,16.30
2017-09-27T18:07:59.866Z,16.20
2017-09-27T18:10:33.121Z,16.10
2017-09-27T18:13:06.413Z,16.10
2017-09-27T18:15:53.698Z,16.00
2017-09-27T18:18:21.228Z,15.90
2017-09-27T18:20:48.898Z,15.80
2017-09-27T18:23:16.496Z,15.80
2017-09-27T18:25:44.010Z,15.80
2017-09-27T18:28:12.462Z,15.90
2017-09-27T18:30:39.966Z,15.90
2017-09-27T18:33:08.283Z,15.90
2017-09-27T18:35:35.782Z,15.90
2017-09-27T18:38:03.692Z,15.80
2017-09-27T18:40:31.219Z,15.70
2017-09-27T18:42:58.715Z,15.60
2017-09-27T18:45:27.025Z,15.50
2017-09-27T18:47:54.633Z,15.50
2017-09-27T18:50:22.245Z,15.50
2017-09-27T18:52:50.048Z,15.40
2017-09-27T18:55:17.850Z,15.40
2017-09-27T18:57:45.441Z,15.30
2017-09-27T19:00:12.964Z,15.10
2017-09-27T19:02:40.758Z,15.00
2017-09-27T19:05:08.274Z,14.90
2017-09-27T19:07:35.843Z,14.80
2017-09-27T19:10:03.337Z,14.80
2017-09-27T19:12:31.852Z,14.70
2017-09-27T19:14:59.370Z,14.70
2017-09-27T19:17:26.886Z,14.70
2017-09-27T19:19:54.515Z,14.80
2017-09-27T19:22:22.042Z,14.80
2017-09-27T19:24:49.641Z,14.80
2017-09-27T19:27:17.916Z,15.00
2017-09-27T19:29:45.470Z,15.00
2017-09-27T19:32:12.986Z,15.00
2017-09-27T19:34:40.552Z,15.10
2017-09-27T19:37:08.080Z,15.00
2017-09-27T19:39:35.804Z,15.00
2017-09-27T19:42:03.326Z,15.00
2017-09-27T19:44:30.855Z,14.80
2017-09-27T19:46:58.415Z,14.80
2017-09-27T19:49:26.224Z,14.70
2017-09-27T19:51:53.796Z,14.60
2017-09-27T19:54:21.306Z,14.60
2017-09-27T19:56:48.868Z,14.60
2017-09-27T19:59:16.378Z,14.50
2017-09-27T20:01:43.930Z,14.50
2017-09-27T20:04:12.206Z,14.50
2017-09-27T20:06:40.165Z,14.50
2017-09-27T20:09:07.682Z,14.50
2017-09-27T20:11:35.177Z,14.50
2017-09-27T20:14:02.781Z,14.40
2017-09-27T20:16:30.306Z,14.30
2017-09-27T20:18:57.855Z,14.30
2017-09-27T20:21:26.138Z,14.40
2017-09-27T20:23:53.677Z,14.40
2017-09-27T20:26:21.233Z,14.40
2017-09-27T20:28:48.795Z,14.40
2017-09-27T20:31:16.298Z,14.50
2017-09-27T20:33:44.602Z,14.60
2017-09-27T20:36:12.110Z,14.50
2017-09-27T20:38:40.573Z,14.70
2017-09-27T20:41:08.079Z,14.60
2017-09-27T20:43:35.581Z,14.70
2017-09-27T20:46:03.151Z,14.70
2017-09-27T20:48:30.662Z,14.80
2017-09-27T20:50:58.220Z,14.80
2017-09-27T20:53:25.729Z,14.80
2017-09-27T20:55:54.083Z,14.80
2017-09-27T20:58:21.598Z,14.80
2017-09-27T21:00:49.142Z,14.80
2017-09-27T21:03:16.694Z,14.70
2017-09-27T21:05:44.237Z,14.70
2017-09-27T21:08:11.764Z,14.70
2017-09-27T21:10:39.311Z,14.70
2017-09-27T21:13:06.852Z,14.80
2017-09-27T21:15:34.541Z,14.90
2017-09-27T21:18:02.058Z,14.80
2017-09-27T21:20:29.562Z,14.80
2017-09-27T21:22:57.102Z,14.90
2017-09-27T21:25:24.626Z,14.90
2017-09-27T21:27:52.188Z,14.90
2017-09-27T21:30:19.711Z,14.80
2017-09-27T21:32:47.991Z,14.80
2017-09-27T21:35:16.302Z,14.70
2017-09-27T21:37:44.847Z,14.70
2017-09-27T21:40:12.399Z,14.70
2017-09-27T21:42:39.906Z,14.70
2017-09-27T21:45:08.168Z,14.60
2017-09-27T21:47:36.477Z,14.60
2017-09-27T21:50:03.974Z,14.50
2017-09-27T21:52:31.534Z,14.60
2017-09-27T21:54:59.206Z,14.50
2017-09-27T21:57:26.757Z,14.50
2017-09-27T21:59:54.250Z,14.50
2017-09-27T22:02:22.558Z,14.50
2017-09-27T22:04:50.069Z,14.50
2017-09-27T22:07:18.770Z,14.40
2017-09-27T22:09:46.283Z,14.40
2017-09-27T22:12:13.798Z,14.50
2017-09-27T22:14:41.333Z,14.50
2017-09-27T22:17:08.839Z,14.40
2017-09-27T22:19:36.379Z,14.40
2017-09-27T22:22:03.878Z,14.20
2017-09-27T22:24:32.241Z,14.30
2017-09-27T22:27:00.505Z,14.10
2017-09-27T22:29:29.110Z,14.10
2017-09-27T22:31:56.618Z,14.10
2017-09-27T22:34:24.884Z,14.30
2017-09-27T22:36:53.211Z,14.20
2017-09-27T22:39:20.726Z,14.20
2017-09-27T22:41:48.269Z,14.20
2017-09-27T22:44:15.778Z,14.10
2017-09-27T22:46:43.667Z,14.10
2017-09-27T22:49:11.222Z,14.00
2017-09-27T22:51:38.730Z,13.90
2017-09-27T22:54:07.035Z,13.80
2017-09-27T22:56:34.581Z,13.80
2017-09-27T22:59:02.118Z,13.70
2017-09-27T23:01:29.625Z,13.60
2017-09-27T23:03:57.165Z,13.60
2017-09-27T23:06:24.701Z,13.50
2017-09-27T23:08:53.034Z,13.50
2017-09-27T23:11:20.542Z,13.50
2017-09-27T23:13:48.237Z,13.50
2017-09-27T23:16:15.746Z,13.40
2017-09-27T23:18:43.252Z,13.40
2017-09-27T23:21:10.792Z,13.30
2017-09-27T23:23:39.057Z,13.20
2017-09-27T23:26:07.366Z,13.20
2017-09-27T23:28:34.858Z,13.20
2017-09-27T23:31:03.158Z,13.10
2017-09-27T23:33:30.652Z,13.10
2017-09-27T23:35:58.753Z,13.10
2017-09-27T23:38:26.253Z,13.10
2017-09-27T23:40:54.538Z,13.00
2017-09-27T23:43:22.075Z,13.00
2017-09-27T23:45:50.352Z,12.90
2017-09-27T23:48:17.893Z,12.90
2017-09-27T23:50:45.401Z,12.80
2017-09-27T23:53:13.200Z,12.70
2017-09-27T23:55:40.826Z,12.70
2017-09-27T23:58:09.111Z,12.80
